Norse Mersey — IBEN — position and weather

sailwx.info

Track history (hours):
 
Tides and Currents Weather Stations Pressure Air Temp Water Temp Dewpoint Dewpoint Depression Visibility Wind Speed Wind Dir Waves Ship Positions

Norse Mersey

Operator: Norse Merchant Ferries

Last reported at 2017-Mar-24 17:29 UTC. Time now 2017-Mar-24 17:51 UTC.
Position N 44°19' E 008°29'.

Length 175 m; draft 5.2 m.

Type: Ship (hazmat cat A). MMSI: 247026000.

Date/timePositionNaut miles runAvg speedWind from/ knotsBaromVisibWave heightAir tempDewpointWater temp
2017-Mar-24 17:29N 44°19' E 008°29'0 0.0
2017-Mar-24 16:29N 44°19' E 008°29'0 0.0
2017-Mar-24 15:29N 44°19' E 008°29'0 0.0
2017-Mar-24 14:29N 44°19' E 008°29'0 0.0
2017-Mar-24 13:29N 44°19' E 008°29'0 0.0
2017-Mar-24 12:32N 44°19' E 008°29'0 0.0
2017-Mar-24 11:32N 44°19' E 008°29'0 0.0
2017-Mar-24 10:32N 44°19' E 008°29'0 0.0
2017-Mar-24 09:32N 44°19' E 008°29'1 1.1
2017-Mar-24 08:34N 44°19' E 008°31'1211.8
2017-Mar-24 07:33N 44°07' E 008°31'1414.1
2017-Mar-24 06:33N 43°53' E 008°30'24 0.7
2017-Mar-22 22:28N 43°29' E 008°29'3015.0
2017-Mar-22 20:27N 43°59' E 008°30'1314.7
2017-Mar-22 19:33N 44°12' E 008°31'6 6.3
2017-Mar-22 18:33N 44°19' E 008°29'0 0.0
2017-Mar-22 17:33N 44°19' E 008°29'0 0.0
2017-Mar-22 16:33N 44°19' E 008°29'0 0.0
2017-Mar-22 15:33N 44°19' E 008°29'0 0.0
2017-Mar-22 14:33N 44°19' E 008°29'0 0.0
2017-Mar-22 13:33N 44°19' E 008°29'0 0.0
2017-Mar-22 12:33N 44°19' E 008°29'0 0.0
2017-Mar-22 11:33N 44°19' E 008°29'0 0.0
2017-Mar-22 10:33N 44°19' E 008°29'0 0.0
2017-Mar-22 09:33N 44°19' E 008°29'3 2.6
2017-Mar-22 08:33N 44°16' E 008°31'1515.4
2017-Mar-22 07:33N 44°01' E 008°31'31 0.9
2017-Mar-20 22:13N 43°30' E 008°29'1215.3
2017-Mar-20 21:28N 43°42' E 008°29'1415.4
2017-Mar-20 20:33N 43°56' E 008°30'1515.5
2017-Mar-20 19:33N 44°11' E 008°31'7 7.4
2017-Mar-20 18:33N 44°19' E 008°29'0 0.0
2017-Mar-20 17:33N 44°19' E 008°29'0 0.0
2017-Mar-20 16:33N 44°19' E 008°29'0 0.0
2017-Mar-20 15:33N 44°19' E 008°29'0 0.0
2017-Mar-20 14:33N 44°19' E 008°29'0 0.0
2017-Mar-20 13:33N 44°19' E 008°29'0 0.0
2017-Mar-20 12:33N 44°19' E 008°29'0 0.0
2017-Mar-20 11:33N 44°19' E 008°29'0 0.0
2017-Mar-20 10:33N 44°19' E 008°29'1 0.9
2017-Mar-20 09:33N 44°18' E 008°30'0 0.0
2017-Mar-20 08:26N 44°18' E 008°30'0 0.0
2017-Mar-20 07:32N 44°18' E 008°30'0 0.0
2017-Mar-20 06:32N 44°18' E 008°30'0 0.0
2017-Mar-20 05:32N 44°18' E 008°30'0 0.0
2017-Mar-20 04:32N 44°18' E 008°30'0 0.0
2017-Mar-20 03:32N 44°18' E 008°30'0 0.1
2017-Mar-20 02:32N 44°18' E 008°30'0 0.0
2017-Mar-20 01:32N 44°18' E 008°30'0 0.0
2017-Mar-20 00:32N 44°18' E 008°30'0 0.0
2017-Mar-19 23:33N 44°18' E 008°30'8 8.4
2017-Mar-19 22:33N 44°12' E 008°39'1615.7
2017-Mar-19 21:33N 44°01' E 008°54'1616.0
2017-Mar-19 20:33N 43°52' E 009°13'1616.0
2017-Mar-19 19:33N 43°43' E 009°31'1515.2
2017-Mar-19 18:33N 43°34' E 009°48'1515.1
2017-Mar-19 17:33N 43°30' E 010°08'9 8.5
2017-Mar-19 16:32N 43°35' E 010°18'0 0.0
2017-Mar-19 15:23N 43°35' E 010°18'0 0.0
2017-Mar-19 14:32N 43°35' E 010°18'0 0.0
2017-Mar-19 13:26N 43°35' E 010°18'0 0.0
2017-Mar-19 12:32N 43°35' E 010°18'0 0.0
2017-Mar-19 11:32N 43°35' E 010°18'0 0.0
2017-Mar-19 10:32N 43°35' E 010°18'0 0.0
2017-Mar-19 09:32N 43°35' E 010°18'0 0.0
2017-Mar-19 08:32N 43°35' E 010°18'0 0.0
2017-Mar-19 07:32N 43°35' E 010°18'0 0.0
2017-Mar-19 06:32N 43°35' E 010°18'1 0.5
2017-Mar-19 05:33N 43°34' E 010°18'4 4.5
2017-Mar-19 04:33N 43°31' E 010°15'4 3.8
2017-Mar-19 03:33N 43°27' E 010°12'4 4.0
2017-Mar-19 02:33N 43°24' E 010°10'1212.2
2017-Mar-19 01:33N 43°12' E 010°05'25412.7
2017-Mar-18 05:33N 38°59' E 009°33'1413.4
2017-Mar-18 04:33N 39°05' E 009°17'1111.1
2017-Mar-18 03:32N 39°13' E 009°06'0 0.0
2017-Mar-18 02:32N 39°13' E 009°06'0 0.0
2017-Mar-18 01:32N 39°13' E 009°06'0 0.0
2017-Mar-18 00:32N 39°13' E 009°06'0 0.0
2017-Mar-17 23:32N 39°13' E 009°06'0 0.0
2017-Mar-17 22:32N 39°13' E 009°06'3 2.9
2017-Mar-17 21:33N 39°10' E 009°08'1414.0
2017-Mar-17 20:33N 39°02' E 009°23'1512.0
2017-Mar-17 19:20N 39°05' E 009°41'22815.1
2017-Mar-17 04:11N 42°53' E 009°58'915.3
2017-Mar-17 03:33N 43°02' E 010°02'1615.6
2017-Mar-17 02:33N 43°17' E 010°07'1515.2
2017-Mar-17 01:33N 43°31' E 010°14'5 4.6
2017-Mar-17 00:31N 43°35' E 010°18'0 0.0
2017-Mar-16 23:31N 43°35' E 010°18'0 0.0
2017-Mar-16 22:31N 43°35' E 010°18'0 0.0
2017-Mar-16 21:29N 43°35' E 010°18'3 2.9
2017-Mar-16 20:34N 43°32' E 010°17'8 7.9
2017-Mar-16 19:33N 43°25' E 010°12'1515.3
2017-Mar-16 18:33N 43°11' E 010°05'1515.5
2017-Mar-16 17:33N 42°56' E 009°59'1515.4
2017-Mar-16 16:33N 42°41' E 009°55'22214.7
2017-Mar-16 01:27N 38°59' E 009°33'1314.5
2017-Mar-16 00:32N 39°05' E 009°18'1212.0
2017-Mar-15 23:33N 39°12' E 009°06'0 0.3
2017-Mar-15 22:32N 39°13' E 009°06'0 0.0
2017-Mar-15 21:32N 39°13' E 009°06'0 0.0
2017-Mar-15 20:32N 39°13' E 009°06'0 0.0
2017-Mar-15 19:32N 39°13' E 009°06'0 0.0
2017-Mar-15 18:32N 39°13' E 009°06'0 0.2
2017-Mar-15 17:33N 39°12' E 009°06'10 9.8
2017-Mar-15 16:33N 39°06' E 009°16'22213.9
2017-Mar-15 00:33N 42°47' E 009°55'1615.7
2017-Mar-14 23:33N 43°02' E 010°01'1615.7
2017-Mar-14 22:33N 43°17' E 010°06'1515.3
2017-Mar-14 21:33N 43°31' E 010°13'5 4.7
2017-Mar-14 20:31N 43°35' E 010°18'0 0.0
2017-Mar-14 19:31N 43°35' E 010°18'0 0.0
2017-Mar-14 18:31N 43°35' E 010°18'0 0.0
2017-Mar-14 17:31N 43°35' E 010°18'  
Track history (hours):
 
Tides and Currents Weather Stations Pressure Air Temp Water Temp Dewpoint Dewpoint Depression Visibility Wind Speed Wind Dir Waves Ship Positions

Norse Mersey

Operator: Norse Merchant Ferries

Last reported at 2017-Mar-24 17:29 UTC. Time now 2017-Mar-24 17:51 UTC.
Position N 44°19' E 008°29'.

Length 175 m; draft 5.2 m.

Type: Ship (hazmat cat A). MMSI: 247026000.

Date/timePositionNaut miles runAvg speedWind from/ knotsBaromVisibWave heightAir tempDewpointWater temp
2017-Mar-24 17:29N 44°19' E 008°29'0 0.0
2017-Mar-24 16:29N 44°19' E 008°29'0 0.0
2017-Mar-24 15:29N 44°19' E 008°29'0 0.0
2017-Mar-24 14:29N 44°19' E 008°29'0 0.0
2017-Mar-24 13:29N 44°19' E 008°29'0 0.0
2017-Mar-24 12:32N 44°19' E 008°29'0 0.0
2017-Mar-24 11:32N 44°19' E 008°29'0 0.0
2017-Mar-24 10:32N 44°19' E 008°29'0 0.0
2017-Mar-24 09:32N 44°19' E 008°29'1 1.1
2017-Mar-24 08:34N 44°19' E 008°31'1211.8
2017-Mar-24 07:33N 44°07' E 008°31'1414.1
2017-Mar-24 06:33N 43°53' E 008°30'24 0.7
2017-Mar-22 22:28N 43°29' E 008°29'3015.0
2017-Mar-22 20:27N 43°59' E 008°30'1314.7
2017-Mar-22 19:33N 44°12' E 008°31'6 6.3
2017-Mar-22 18:33N 44°19' E 008°29'0 0.0
2017-Mar-22 17:33N 44°19' E 008°29'0 0.0
2017-Mar-22 16:33N 44°19' E 008°29'0 0.0
2017-Mar-22 15:33N 44°19' E 008°29'0 0.0
2017-Mar-22 14:33N 44°19' E 008°29'0 0.0
2017-Mar-22 13:33N 44°19' E 008°29'0 0.0
2017-Mar-22 12:33N 44°19' E 008°29'0 0.0
2017-Mar-22 11:33N 44°19' E 008°29'0 0.0
2017-Mar-22 10:33N 44°19' E 008°29'0 0.0
2017-Mar-22 09:33N 44°19' E 008°29'3 2.6
2017-Mar-22 08:33N 44°16' E 008°31'1515.4
2017-Mar-22 07:33N 44°01' E 008°31'31 0.9
2017-Mar-20 22:13N 43°30' E 008°29'1215.3
2017-Mar-20 21:28N 43°42' E 008°29'1415.4
2017-Mar-20 20:33N 43°56' E 008°30'1515.5
2017-Mar-20 19:33N 44°11' E 008°31'7 7.4
2017-Mar-20 18:33N 44°19' E 008°29'0 0.0
2017-Mar-20 17:33N 44°19' E 008°29'0 0.0
2017-Mar-20 16:33N 44°19' E 008°29'0 0.0
2017-Mar-20 15:33N 44°19' E 008°29'0 0.0
2017-Mar-20 14:33N 44°19' E 008°29'0 0.0
2017-Mar-20 13:33N 44°19' E 008°29'0 0.0
2017-Mar-20 12:33N 44°19' E 008°29'0 0.0
2017-Mar-20 11:33N 44°19' E 008°29'0 0.0
2017-Mar-20 10:33N 44°19' E 008°29'1 0.9
2017-Mar-20 09:33N 44°18' E 008°30'0 0.0
2017-Mar-20 08:26N 44°18' E 008°30'0 0.0
2017-Mar-20 07:32N 44°18' E 008°30'0 0.0
2017-Mar-20 06:32N 44°18' E 008°30'0 0.0
2017-Mar-20 05:32N 44°18' E 008°30'0 0.0
2017-Mar-20 04:32N 44°18' E 008°30'0 0.0
2017-Mar-20 03:32N 44°18' E 008°30'0 0.1
2017-Mar-20 02:32N 44°18' E 008°30'0 0.0
2017-Mar-20 01:32N 44°18' E 008°30'0 0.0
2017-Mar-20 00:32N 44°18' E 008°30'0 0.0
2017-Mar-19 23:33N 44°18' E 008°30'8 8.4
2017-Mar-19 22:33N 44°12' E 008°39'1615.7
2017-Mar-19 21:33N 44°01' E 008°54'1616.0
2017-Mar-19 20:33N 43°52' E 009°13'1616.0
2017-Mar-19 19:33N 43°43' E 009°31'1515.2
2017-Mar-19 18:33N 43°34' E 009°48'1515.1
2017-Mar-19 17:33N 43°30' E 010°08'9 8.5
2017-Mar-19 16:32N 43°35' E 010°18'0 0.0
2017-Mar-19 15:23N 43°35' E 010°18'0 0.0
2017-Mar-19 14:32N 43°35' E 010°18'0 0.0
2017-Mar-19 13:26N 43°35' E 010°18'0 0.0
2017-Mar-19 12:32N 43°35' E 010°18'0 0.0
2017-Mar-19 11:32N 43°35' E 010°18'0 0.0
2017-Mar-19 10:32N 43°35' E 010°18'0 0.0
2017-Mar-19 09:32N 43°35' E 010°18'0 0.0
2017-Mar-19 08:32N 43°35' E 010°18'0 0.0
2017-Mar-19 07:32N 43°35' E 010°18'0 0.0
2017-Mar-19 06:32N 43°35' E 010°18'1 0.5
2017-Mar-19 05:33N 43°34' E 010°18'4 4.5
2017-Mar-19 04:33N 43°31' E 010°15'4 3.8
2017-Mar-19 03:33N 43°27' E 010°12'4 4.0
2017-Mar-19 02:33N 43°24' E 010°10'1212.2
2017-Mar-19 01:33N 43°12' E 010°05'25412.7
2017-Mar-18 05:33N 38°59' E 009°33'1413.4
2017-Mar-18 04:33N 39°05' E 009°17'1111.1
2017-Mar-18 03:32N 39°13' E 009°06'0 0.0
2017-Mar-18 02:32N 39°13' E 009°06'0 0.0
2017-Mar-18 01:32N 39°13' E 009°06'0 0.0
2017-Mar-18 00:32N 39°13' E 009°06'0 0.0
2017-Mar-17 23:32N 39°13' E 009°06'0 0.0
2017-Mar-17 22:32N 39°13' E 009°06'3 2.9
2017-Mar-17 21:33N 39°10' E 009°08'1414.0
2017-Mar-17 20:33N 39°02' E 009°23'1512.0
2017-Mar-17 19:20N 39°05' E 009°41'22815.1
2017-Mar-17 04:11N 42°53' E 009°58'915.3
2017-Mar-17 03:33N 43°02' E 010°02'1615.6
2017-Mar-17 02:33N 43°17' E 010°07'1515.2
2017-Mar-17 01:33N 43°31' E 010°14'5 4.6
2017-Mar-17 00:31N 43°35' E 010°18'0 0.0
2017-Mar-16 23:31N 43°35' E 010°18'0 0.0
2017-Mar-16 22:31N 43°35' E 010°18'0 0.0
2017-Mar-16 21:29N 43°35' E 010°18'3 2.9
2017-Mar-16 20:34N 43°32' E 010°17'8 7.9
2017-Mar-16 19:33N 43°25' E 010°12'1515.3
2017-Mar-16 18:33N 43°11' E 010°05'1515.5
2017-Mar-16 17:33N 42°56' E 009°59'1515.4
2017-Mar-16 16:33N 42°41' E 009°55'22214.7
2017-Mar-16 01:27N 38°59' E 009°33'1314.5
2017-Mar-16 00:32N 39°05' E 009°18'1212.0
2017-Mar-15 23:33N 39°12' E 009°06'0 0.3
2017-Mar-15 22:32N 39°13' E 009°06'0 0.0
2017-Mar-15 21:32N 39°13' E 009°06'0 0.0
2017-Mar-15 20:32N 39°13' E 009°06'0 0.0
2017-Mar-15 19:32N 39°13' E 009°06'0 0.0
2017-Mar-15 18:32N 39°13' E 009°06'0 0.2
2017-Mar-15 17:33N 39°12' E 009°06'10 9.8
2017-Mar-15 16:33N 39°06' E 009°16'22213.9
2017-Mar-15 00:33N 42°47' E 009°55'1615.7
2017-Mar-14 23:33N 43°02' E 010°01'1615.7
2017-Mar-14 22:33N 43°17' E 010°06'1515.3
2017-Mar-14 21:33N 43°31' E 010°13'5 4.7
2017-Mar-14 20:31N 43°35' E 010°18'0 0.0
2017-Mar-14 19:31N 43°35' E 010°18'0 0.0
2017-Mar-14 18:31N 43°35' E 010°18'0 0.0
2017-Mar-14 17:31N 43°35' E 010°18'  

Dump ship's entire track history